Time;durP1;ratioP1;P1;durP2;ratioP2;P2;SDS_P1;SDS_P2;PMS_P1;PMS_P2;Temp;Humidity;BMP_temperature;BMP_pressure;BME280_temperature;BME280_humidity;BME280_pressure;Samples;Min_cycle;Max_cycle;Signal;HPM_P1;HPM_P2
2021/08/16 00:03:35;;;;;;;11.7;8.8;;;;;;;19.08;100;98029.92;;;;
2021/08/16 00:13:35;;;;;;;10.7;9.4;;;;;;;19.06;100;98037.69;;;;
2021/08/16 00:23:35;;;;;;;12;9.1;;;;;;;19.08;100;98040.84;;;;
2021/08/16 00:33:35;;;;;;;13.9;10.1;;;;;;;18.91;100;98027.81;;;;
2021/08/16 00:43:35;;;;;;;14.6;9.3;;;;;;;18.91;100;98017.67;;;;
2021/08/16 00:53:35;;;;;;;14.4;9.4;;;;;;;18.95;100;98026.66;;;;
2021/08/16 01:03:35;;;;;;;13.1;9.8;;;;;;;18.98;100;98008.77;;;;
2021/08/16 01:13:39;;;;;;;11.6;7.4;;;;;;;18.95;100;98001.33;;;;
2021/08/16 01:23:43;;;;;;;13.4;10.4;;;;;;;18.85;100;97974.68;;;;
2021/08/16 01:33:36;;;;;;;11.5;9.5;;;;;;;18.82;100;97945.41;;;;
2021/08/16 01:43:35;;;;;;;10.3;8.1;;;;;;;18.87;100;97975.11;;;;
2021/08/16 01:53:35;;;;;;;17.2;9.9;;;;;;;18.8;100;97964.91;;;;
2021/08/16 02:03:35;;;;;;;18.2;10.8;;;;;;;18.84;100;97979.38;;;;
2021/08/16 02:13:34;;;;;;;12.6;10.4;;;;;;;18.86;100;98025.41;;;;
2021/08/16 02:23:34;;;;;;;13.8;11.1;;;;;;;19.06;100;98002.18;;;;
2021/08/16 02:33:34;;;;;;;12;9.6;;;;;;;19.05;100;97952.23;;;;
2021/08/16 02:43:33;;;;;;;12.6;11.2;;;;;;;19.01;100;97973.29;;;;
2021/08/16 02:53:46;;;;;;;13.6;11;;;;;;;18.83;100;97958.69;;;;
2021/08/16 03:03:33;;;;;;;13.2;10.8;;;;;;;18.71;100;97953.49;;;;
2021/08/16 03:13:33;;;;;;;17.1;10.2;;;;;;;18.61;100;97951.45;;;;
2021/08/16 03:23:33;;;;;;;11.8;8.4;;;;;;;18.57;100;97942.44;;;;
2021/08/16 03:33:33;;;;;;;11.8;8.9;;;;;;;18.55;100;97944.77;;;;
2021/08/16 03:43:33;;;;;;;11.5;8.9;;;;;;;18.64;100;97915.22;;;;
2021/08/16 03:53:33;;;;;;;11;7.8;;;;;;;18.84;100;97886.55;;;;
2021/08/16 04:03:32;;;;;;;13.6;10.5;;;;;;;18.97;100;97871.42;;;;
2021/08/16 04:13:32;;;;;;;12.5;8.2;;;;;;;19.11;100;97865.27;;;;
2021/08/16 04:23:32;;;;;;;14;9.2;;;;;;;19.32;100;97875.54;;;;
2021/08/16 04:33:32;;;;;;;8.9;6.7;;;;;;;19.62;100;97865.17;;;;
2021/08/16 04:43:32;;;;;;;10.8;7.9;;;;;;;19.89;100;97866.44;;;;
2021/08/16 04:53:32;;;;;;;8.3;6.7;;;;;;;20.14;100;97874.72;;;;
2021/08/16 05:03:32;;;;;;;8.5;6.4;;;;;;;20.1;100;97880.19;;;;
2021/08/16 05:13:32;;;;;;;12.9;9;;;;;;;20.1;100;97882.13;;;;
2021/08/16 05:23:32;;;;;;;15.6;8.1;;;;;;;20.04;100;97880.95;;;;
2021/08/16 05:33:33;;;;;;;12;7.5;;;;;;;20.14;100;97884.88;;;;
2021/08/16 05:43:33;;;;;;;11;7.7;;;;;;;20.71;100;97908.48;;;;
2021/08/16 05:53:33;;;;;;;10.8;8.6;;;;;;;21.21;100;97924.94;;;;
2021/08/16 06:03:34;;;;;;;17.3;11.3;;;;;;;21.49;100;97961.3;;;;
2021/08/16 06:13:33;;;;;;;14;8.8;;;;;;;21.58;100;97963.65;;;;
2021/08/16 06:23:34;;;;;;;16.8;9.6;;;;;;;21.72;100;97980.08;;;;
2021/08/16 06:33:36;;;;;;;10.6;9.5;;;;;;;22.1;100;97983.13;;;;
2021/08/16 06:43:34;;;;;;;12.1;9.9;;;;;;;22.12;100;97991.73;;;;
2021/08/16 06:53:34;;;;;;;12.3;10.4;;;;;;;22.66;100;98009.54;;;;
2021/08/16 07:03:35;;;;;;;9.5;7.9;;;;;;;22.96;100;98002.3;;;;
2021/08/16 07:13:35;;;;;;;12.1;10.1;;;;;;;23.16;100;98005.3;;;;
2021/08/16 07:23:36;;;;;;;17.1;9;;;;;;;23.89;100;98002.3;;;;
2021/08/16 07:33:40;;;;;;;12.3;8.1;;;;;;;24.19;100;98018.13;;;;
2021/08/16 07:43:41;;;;;;;11.4;8.1;;;;;;;24.43;100;98009.57;;;;
2021/08/16 07:53:40;;;;;;;13.7;8.8;;;;;;;24.47;100;98021.3;;;;
2021/08/16 08:03:40;;;;;;;15.3;8.8;;;;;;;24.72;100;98032;;;;
2021/08/16 08:13:44;;;;;;;13.1;8.5;;;;;;;24.93;100;98036.47;;;;
2021/08/16 08:23:40;;;;;;;10.7;8;;;;;;;25.09;100;98033.09;;;;
2021/08/16 08:33:41;;;;;;;10.7;8.4;;;;;;;25.99;100;98041.06;;;;
2021/08/16 08:43:41;;;;;;;9.9;7.7;;;;;;;26.53;100;98038.04;;;;
2021/08/16 08:53:42;;;;;;;10.1;7.6;;;;;;;26.46;100;98029.89;;;;
2021/08/16 09:03:58;;;;;;;9.4;7.1;;;;;;;26.65;100;98029.11;;;;
2021/08/16 09:13:44;;;;;;;10.4;6.8;;;;;;;27.13;100;98017.38;;;;
2021/08/16 09:23:49;;;;;;;10;7;;;;;;;27.27;100;98008.74;;;;
2021/08/16 09:33:46;;;;;;;9.4;6;;;;;;;27.57;100;97996.55;;;;
2021/08/16 09:43:47;;;;;;;10.8;6.1;;;;;;;28.11;100;97999.49;;;;
2021/08/16 09:53:49;;;;;;;12.8;6.4;;;;;;;28.67;100;97994.3;;;;
2021/08/16 10:03:50;;;;;;;9;6;;;;;;;29.11;100;97991.77;;;;
2021/08/16 10:13:51;;;;;;;8.5;6.3;;;;;;;29.49;100;97992.52;;;;
2021/08/16 10:23:54;;;;;;;8.1;5.8;;;;;;;28.91;100;97981.66;;;;
2021/08/16 10:33:54;;;;;;;6.7;3.9;;;;;;;28.73;100;97961.26;;;;
2021/08/16 10:43:55;;;;;;;7.8;4.5;;;;;;;28.96;94.0498;97961.7;;;;
2021/08/16 10:53:57;;;;;;;8.3;4.7;;;;;;;28.88;91.22363;97943.7;;;;
2021/08/16 11:03:58;;;;;;;7.4;3.6;;;;;;;28.48;93.97559;97937.81;;;;
2021/08/16 11:13:59;;;;;;;6;4.4;;;;;;;29.02;97.63965;97936.17;;;;
2021/08/16 11:24:01;;;;;;;9.4;4.2;;;;;;;29.36;96.0293;97928.7;;;;
2021/08/16 11:34:02;;;;;;;8.8;4.7;;;;;;;29.57;91.39453;97926.41;;;;
2021/08/16 11:44:04;;;;;;;7.1;4;;;;;;;29.75;90.95117;97921.75;;;;
2021/08/16 11:54:05;;;;;;;7.5;4.6;;;;;;;29.96;91.70801;97909.12;;;;
2021/08/16 12:04:06;;;;;;;6.5;4.7;;;;;;;30.38;84.10254;97904.73;;;;
2021/08/16 12:14:08;;;;;;;6.3;3.6;;;;;;;30.51;82.09961;97893.53;;;;
2021/08/16 12:24:09;;;;;;;7.6;4.3;;;;;;;30.22;84.68457;97887.51;;;;
2021/08/16 12:34:13;;;;;;;6.6;4.3;;;;;;;30.39;80.28711;97872.14;;;;
2021/08/16 12:44:12;;;;;;;8.5;5.2;;;;;;;30.78;83.91699;97879.74;;;;
2021/08/16 12:54:14;;;;;;;7.2;3.5;;;;;;;30.76;77.96777;97864.72;;;;
2021/08/16 13:04:15;;;;;;;8.3;3.9;;;;;;;31.03;77.93066;97850.14;;;;
2021/08/16 13:14:17;;;;;;;13.8;3.9;;;;;;;31.32;75.37891;97839.31;;;;
2021/08/16 13:24:18;;;;;;;7.1;4.1;;;;;;;30.99;76.99023;97824.45;;;;
2021/08/16 13:34:21;;;;;;;12;4.2;;;;;;;31.2;75.39551;97810.41;;;;
2021/08/16 13:44:22;;;;;;;10.5;4;;;;;;;31.4;79.79102;97798.78;;;;
2021/08/16 13:54:23;;;;;;;8.3;3.8;;;;;;;32.26;71.34863;97797.21;;;;
2021/08/16 14:04:25;;;;;;;9.8;4.2;;;;;;;32.39;67.48438;97789.39;;;;
2021/08/16 14:14:27;;;;;;;5.7;2.7;;;;;;;32.55;70.84473;97784.67;;;;
2021/08/16 14:24:28;;;;;;;13.7;4.6;;;;;;;32.33;65.14551;97791.29;;;;
2021/08/16 14:34:30;;;;;;;13.2;3.2;;;;;;;32.8;67.46094;97798.94;;;;
2021/08/16 14:44:33;;;;;;;7.7;4.2;;;;;;;32.37;60.03223;97793.91;;;;
2021/08/16 14:54:34;;;;;;;5.5;2.5;;;;;;;32.14;61.86914;97791.86;;;;
2021/08/16 15:04:36;;;;;;;10.5;3.8;;;;;;;32.7;62.56641;97789.09;;;;
2021/08/16 15:14:37;;;;;;;7.5;3.6;;;;;;;32.41;65.19141;97777.78;;;;
2021/08/16 15:24:41;;;;;;;7.2;4.7;;;;;;;34.24;63.89746;97788.95;;;;
2021/08/16 15:34:46;;;;;;;6.1;2.6;;;;;;;35.23;51.91113;97789.55;;;;
2021/08/16 15:44:42;;;;;;;6.1;3.3;;;;;;;32.63;63.42578;97775.48;;;;
2021/08/16 15:54:44;;;;;;;8.9;3.7;;;;;;;31.48;68.1084;97769.38;;;;
2021/08/16 16:04:46;;;;;;;12.2;6.5;;;;;;;30.61;79.47754;97758.84;;;;
2021/08/16 16:14:47;;;;;;;9.9;5;;;;;;;29.93;80.125;97765.53;;;;
2021/08/16 16:24:50;;;;;;;8.6;4.9;;;;;;;29.18;82.95508;97767.5;;;;
2021/08/16 16:34:50;;;;;;;9.2;4.8;;;;;;;28.48;84.67969;97770.69;;;;
2021/08/16 16:44:51;;;;;;;10.7;6.8;;;;;;;28.05;90.05273;97776.78;;;;
2021/08/16 16:54:52;;;;;;;10.3;6.5;;;;;;;27.42;93.13672;97773.92;;;;
2021/08/16 17:04:54;;;;;;;9.8;6.5;;;;;;;27.16;93.76172;97775.81;;;;
2021/08/16 17:14:55;;;;;;;13.4;7.1;;;;;;;26.7;98.04199;97773.45;;;;
2021/08/16 17:24:56;;;;;;;18.5;7.1;;;;;;;26.27;97.05469;97757.18;;;;
2021/08/16 17:34:56;;;;;;;10.6;6.8;;;;;;;26;99.17871;97751.84;;;;
2021/08/16 17:44:57;;;;;;;12.1;6.2;;;;;;;25.69;100;97756.1;;;;
2021/08/16 17:54:58;;;;;;;11.8;7.1;;;;;;;25.4;100;97762.22;;;;
2021/08/16 18:04:59;;;;;;;14.9;8.4;;;;;;;25.03;100;97779.88;;;;
2021/08/16 18:14:59;;;;;;;16.8;9;;;;;;;24.59;100;97782.23;;;;
2021/08/16 18:25:01;;;;;;;13.2;6.8;;;;;;;24.51;100;97811.87;;;;
2021/08/16 18:35:01;;;;;;;15.9;9.4;;;;;;;24.43;100;97815.95;;;;
2021/08/16 18:45:01;;;;;;;13.1;9.7;;;;;;;24.29;100;97808.69;;;;
2021/08/16 18:55:02;;;;;;;14.9;11.1;;;;;;;24.12;100;97828.98;;;;
2021/08/16 19:05:02;;;;;;;11.7;8.1;;;;;;;24.08;100;97847.52;;;;
2021/08/16 19:15:03;;;;;;;11;6.7;;;;;;;23.98;100;97862.97;;;;
2021/08/16 19:25:04;;;;;;;10.2;6.7;;;;;;;23.62;100;97872.88;;;;
2021/08/16 19:35:04;;;;;;;11.2;6.7;;;;;;;23.21;100;97881.14;;;;
2021/08/16 19:45:04;;;;;;;12.1;8.9;;;;;;;22.74;100;97870.95;;;;
2021/08/16 19:55:05;;;;;;;10.8;8;;;;;;;22.36;100;97839.83;;;;
2021/08/16 20:05:05;;;;;;;12.3;7.9;;;;;;;21.84;100;97804.06;;;;
2021/08/16 20:15:05;;;;;;;14.4;6.8;;;;;;;21.45;100;97796.02;;;;
2021/08/16 20:25:05;;;;;;;10.6;6.3;;;;;;;21.29;100;97800.39;;;;
2021/08/16 20:35:05;;;;;;;12.2;8.6;;;;;;;21.15;100;97803.17;;;;
2021/08/16 20:45:05;;;;;;;11.3;7.6;;;;;;;21;100;97803.17;;;;
2021/08/16 20:55:06;;;;;;;11.5;7.2;;;;;;;20.82;100;97798.92;;;;
2021/08/16 21:05:06;;;;;;;12.9;7.5;;;;;;;20.57;100;97774.31;;;;
2021/08/16 21:15:06;;;;;;;10;5.8;;;;;;;20.61;100;97753.19;;;;
2021/08/16 21:25:06;;;;;;;9.7;7.1;;;;;;;20.67;100;97750.82;;;;
2021/08/16 21:35:06;;;;;;;9.3;6.3;;;;;;;20.64;100;97781.73;;;;
2021/08/16 21:45:06;;;;;;;10.5;7.3;;;;;;;20.63;100;97813.8;;;;
2021/08/16 21:55:06;;;;;;;13.1;8;;;;;;;20.7;100;97857.61;;;;
2021/08/16 22:05:06;;;;;;;10.9;7.4;;;;;;;20.43;100;97815.38;;;;
2021/08/16 22:15:06;;;;;;;13;8;;;;;;;20.08;100;97789.52;;;;
2021/08/16 22:25:06;;;;;;;13.1;7.4;;;;;;;19.84;100;97760.18;;;;
2021/08/16 22:35:06;;;;;;;9.4;6.3;;;;;;;19.83;100;97791.42;;;;
2021/08/16 22:45:06;;;;;;;9.2;7.3;;;;;;;19.78;100;97800.02;;;;
2021/08/16 22:55:06;;;;;;;12.6;8.1;;;;;;;19.72;100;97811.7;;;;
2021/08/16 23:05:06;;;;;;;14.2;8.2;;;;;;;19.53;100;97864.75;;;;
2021/08/16 23:15:06;;;;;;;10.6;6.3;;;;;;;19.5;100;97805.39;;;;
2021/08/16 23:25:06;;;;;;;10.7;7.5;;;;;;;19.31;100;97835.71;;;;
2021/08/16 23:35:06;;;;;;;8.3;4.6;;;;;;;18.97;100;97881.56;;;;
2021/08/16 23:45:05;;;;;;;7.1;3.7;;;;;;;18.85;100;97890.03;;;;
2021/08/16 23:55:05;;;;;;;7.3;3.7;;;;;;;18.7;100;97886.44;;;;
